createdAt,value
2023-05-10T00:00:11.087Z,61.81
2023-05-10T00:03:19.380Z,62.12
2023-05-10T00:06:21.705Z,62.68
2023-05-10T00:09:23.992Z,62.89
2023-05-10T00:12:26.283Z,63.09
2023-05-10T00:15:33.917Z,63.10
2023-05-10T00:18:36.226Z,63.25
2023-05-10T00:21:38.449Z,64.01
2023-05-10T00:24:40.903Z,64.31
2023-05-10T00:27:45.356Z,63.75
2023-05-10T00:30:50.354Z,63.97
2023-05-10T00:33:55.453Z,63.83
2023-05-10T00:37:04.994Z,63.95
2023-05-10T00:40:12.964Z,64.36
2023-05-10T00:43:16.913Z,64.55
2023-05-10T00:46:19.513Z,66.23
2023-05-10T00:49:22.242Z,66.67
2023-05-10T00:52:31.131Z,66.83
2023-05-10T00:55:37.411Z,67.09
2023-05-10T00:58:42.732Z,66.88
2023-05-10T01:01:50.743Z,67.26
2023-05-10T01:04:53.341Z,67.62
2023-05-10T01:07:55.722Z,67.52
2023-05-10T01:11:00.650Z,68.79
2023-05-10T01:14:04.845Z,68.76
2023-05-10T01:17:08.641Z,67.73
2023-05-10T01:20:12.897Z,68.19
2023-05-10T01:23:38.690Z,68.37
2023-05-10T01:26:50.133Z,68.50
2023-05-10T01:30:21.854Z,67.84
2023-05-10T01:33:25.820Z,67.58
2023-05-10T01:36:31.861Z,68.42
2023-05-10T01:39:34.045Z,67.87
2023-05-10T01:42:51.077Z,68.42
2023-05-10T01:46:01.024Z,67.59
2023-05-10T01:49:08.598Z,68.14
2023-05-10T01:52:16.891Z,67.05
2023-05-10T01:55:24.434Z,68.00
2023-05-10T01:58:31.512Z,67.57
2023-05-10T02:01:35.163Z,66.79
2023-05-10T02:04:39.592Z,66.85
2023-05-10T02:07:45.735Z,66.87
2023-05-10T02:10:50.214Z,66.43
2023-05-10T02:13:53.948Z,65.49
2023-05-10T02:17:03.002Z,64.46
2023-05-10T02:20:08.822Z,64.86
2023-05-10T02:23:14.416Z,65.43
2023-05-10T02:26:19.966Z,64.57
2023-05-10T02:29:24.633Z,64.53
2023-05-10T02:32:28.927Z,65.21
2023-05-10T02:35:34.530Z,65.38
2023-05-10T02:38:42.706Z,64.59
2023-05-10T02:41:53.430Z,64.46
2023-05-10T02:45:02.705Z,63.86
2023-05-10T02:48:05.970Z,63.18
2023-05-10T02:51:09.168Z,63.33
2023-05-10T02:54:21.323Z,63.48
2023-05-10T02:57:28.658Z,64.51
2023-05-10T03:00:31.837Z,63.13
2023-05-10T03:03:34.386Z,62.34
2023-05-10T03:06:36.919Z,63.23
2023-05-10T03:09:43.513Z,63.13
2023-05-10T03:13:11.376Z,63.67
2023-05-10T03:16:30.344Z,63.30
2023-05-10T03:19:52.530Z,63.78
2023-05-10T03:23:02.825Z,63.85
2023-05-10T03:26:06.997Z,63.68
2023-05-10T03:29:10.146Z,63.98
2023-05-10T03:32:12.536Z,62.98
2023-05-10T03:35:15.295Z,63.02
2023-05-10T03:38:18.503Z,63.45
2023-05-10T03:41:22.326Z,63.27
2023-05-10T03:44:24.610Z,62.49
2023-05-10T03:47:30.807Z,63.16
2023-05-10T03:50:38.476Z,62.80
2023-05-10T03:53:43.622Z,63.33
2023-05-10T03:56:47.575Z,62.38
2023-05-10T03:59:51.160Z,62.82
2023-05-10T04:02:53.668Z,63.52
2023-05-10T04:06:03.332Z,62.47
2023-05-10T04:09:05.706Z,62.88
2023-05-10T04:12:10.755Z,62.48
2023-05-10T04:15:13.287Z,62.40
2023-05-10T04:18:15.557Z,61.57
2023-05-10T04:21:17.845Z,62.43
2023-05-10T04:24:20.192Z,62.79
2023-05-10T04:27:22.552Z,61.89
2023-05-10T04:30:26.103Z,62.71
2023-05-10T04:33:30.714Z,62.87
2023-05-10T04:36:36.861Z,62.28
2023-05-10T04:39:42.442Z,63.08
2023-05-10T04:42:45.190Z,61.95
2023-05-10T04:45:51.279Z,61.60
2023-05-10T04:48:53.824Z,59.97
2023-05-10T04:51:56.542Z,58.82
2023-05-10T04:55:01.154Z,58.50
2023-05-10T04:58:05.971Z,57.63
2023-05-10T05:01:09.437Z,58.16
2023-05-10T05:04:11.971Z,57.97
2023-05-10T05:07:15.907Z,57.82
2023-05-10T05:10:20.734Z,56.40
2023-05-10T05:13:27.752Z,56.84
2023-05-10T05:16:32.074Z,56.39
2023-05-10T05:19:34.506Z,58.76
2023-05-10T05:22:38.268Z,57.49
2023-05-10T05:25:40.528Z,58.79
2023-05-10T05:28:45.218Z,59.11
2023-05-10T05:31:47.522Z,58.00
2023-05-10T05:34:53.162Z,58.09
2023-05-10T05:37:55.452Z,57.77
2023-05-10T05:40:57.868Z,56.74
2023-05-10T05:44:02.832Z,55.19
2023-05-10T05:47:05.255Z,55.15
2023-05-10T05:50:07.966Z,54.43
2023-05-10T05:53:10.876Z,55.57
2023-05-10T05:56:15.420Z,53.66
2023-05-10T05:59:20.051Z,54.21
2023-05-10T06:02:22.450Z,53.90
2023-05-10T06:05:24.735Z,52.91
2023-05-10T06:08:31.642Z,51.29
2023-05-10T06:11:36.256Z,50.24
2023-05-10T06:14:40.863Z,50.20
2023-05-10T06:17:50.338Z,50.62
2023-05-10T06:20:52.786Z,52.66
2023-05-10T06:23:57.848Z,55.03
2023-05-10T06:27:01.388Z,56.44
2023-05-10T06:30:12.487Z,53.99
2023-05-10T06:33:17.816Z,53.29
2023-05-10T06:36:20.111Z,53.46
2023-05-10T06:39:22.522Z,53.91
2023-05-10T06:42:26.444Z,53.54
2023-05-10T06:45:30.886Z,53.73
2023-05-10T06:48:35.754Z,51.36
2023-05-10T06:51:38.205Z,51.88
2023-05-10T06:54:40.465Z,50.54
2023-05-10T06:57:43.024Z,48.23
2023-05-10T07:00:50.189Z,47.74
2023-05-10T07:03:54.214Z,48.50
2023-05-10T07:06:58.895Z,46.03
2023-05-10T07:10:03.619Z,45.07
2023-05-10T07:13:06.082Z,43.94
2023-05-10T07:16:13.450Z,49.77
2023-05-10T07:19:15.885Z,49.75
2023-05-10T07:22:18.569Z,49.74
2023-05-10T07:25:23.041Z,50.39
2023-05-10T07:28:30.079Z,47.34
2023-05-10T07:31:32.471Z,47.73
2023-05-10T07:34:35.020Z,48.24
2023-05-10T07:37:40.585Z,48.47
2023-05-10T07:40:45.374Z,46.40
2023-05-10T07:43:54.900Z,46.69
2023-05-10T07:47:02.049Z,43.76
2023-05-10T07:50:07.348Z,41.76
2023-05-10T07:53:11.878Z,46.94
2023-05-10T07:56:30.710Z,47.88
2023-05-10T07:59:34.055Z,47.38
2023-05-10T08:02:38.660Z,48.70
2023-05-10T08:05:41.545Z,46.07
2023-05-10T08:08:46.622Z,47.74
2023-05-10T08:11:48.814Z,44.26
2023-05-10T08:14:51.342Z,44.59
2023-05-10T08:17:53.797Z,43.74
2023-05-10T08:20:58.415Z,46.10
2023-05-10T08:24:00.732Z,46.64
2023-05-10T08:27:03.204Z,47.26
2023-05-10T08:30:06.202Z,46.36
2023-05-10T08:33:08.595Z,44.78
2023-05-10T08:36:16.209Z,41.28
2023-05-10T08:39:29.701Z,41.56
2023-05-10T08:42:37.165Z,45.26
2023-05-10T08:45:43.830Z,46.37
2023-05-10T08:48:49.778Z,44.38
2023-05-10T08:51:56.907Z,43.54
2023-05-10T08:55:01.932Z,45.14
2023-05-10T08:58:07.701Z,45.27
2023-05-10T09:01:13.734Z,45.75
2023-05-10T09:04:18.760Z,44.35
2023-05-10T09:07:21.179Z,45.70
2023-05-10T09:10:27.018Z,47.22
2023-05-10T09:13:29.614Z,45.85
2023-05-10T09:16:31.942Z,45.79
2023-05-10T09:19:36.520Z,44.43
2023-05-10T09:22:41.197Z,45.75
2023-05-10T09:25:43.649Z,46.46
2023-05-10T09:28:59.851Z,45.40
2023-05-10T09:32:05.257Z,47.09
2023-05-10T09:35:16.655Z,45.97
2023-05-10T09:38:19.266Z,44.31
2023-05-10T09:41:24.510Z,44.89
2023-05-10T09:44:27.480Z,43.07
2023-05-10T09:47:38.454Z,43.49
2023-05-10T09:50:41.366Z,43.71
2023-05-10T09:53:44.506Z,43.33
2023-05-10T09:56:49.614Z,45.08
2023-05-10T09:59:55.301Z,45.81
2023-05-10T10:02:59.635Z,44.63
2023-05-10T10:06:01.961Z,43.48
2023-05-10T10:09:07.064Z,44.34
2023-05-10T10:12:11.617Z,45.14
2023-05-10T10:15:17.091Z,44.64
2023-05-10T10:18:28.069Z,42.60
2023-05-10T10:21:30.508Z,43.69
2023-05-10T10:24:35.179Z,43.25
2023-05-10T10:27:43.427Z,43.48
2023-05-10T10:30:52.377Z,43.35
2023-05-10T10:34:08.658Z,43.21
2023-05-10T10:37:11.244Z,42.78
2023-05-10T10:40:27.860Z,40.38
2023-05-10T10:43:32.628Z,40.67
2023-05-10T10:46:35.596Z,40.33
2023-05-10T10:50:01.183Z,40.98
2023-05-10T10:53:13.140Z,41.36
2023-05-10T10:56:24.738Z,41.08
2023-05-10T10:59:31.453Z,40.36
2023-05-10T11:02:49.965Z,40.03
2023-05-10T11:06:02.855Z,40.21
2023-05-10T11:09:09.791Z,41.03
2023-05-10T11:12:12.161Z,40.90
2023-05-10T11:15:14.711Z,41.58
2023-05-10T11:18:17.886Z,41.54
2023-05-10T11:21:25.485Z,41.49
2023-05-10T11:24:29.181Z,41.49
2023-05-10T11:27:38.634Z,41.95
2023-05-10T11:30:48.132Z,41.23
2023-05-10T11:33:55.307Z,40.56
2023-05-10T11:36:58.603Z,39.17
2023-05-10T11:40:01.416Z,40.26
2023-05-10T11:43:04.749Z,40.39
2023-05-10T11:46:13.020Z,40.86
2023-05-10T11:49:18.769Z,41.32
2023-05-10T11:52:23.367Z,41.76
2023-05-10T11:55:25.899Z,40.90
2023-05-10T11:58:28.387Z,40.50
2023-05-10T12:01:37.150Z,39.43
2023-05-10T12:04:39.629Z,39.83
2023-05-10T12:07:41.941Z,40.08
2023-05-10T12:10:46.526Z,40.66
2023-05-10T12:13:51.545Z,39.53
2023-05-10T12:16:53.893Z,39.61
2023-05-10T12:20:16.152Z,39.94
2023-05-10T12:23:18.869Z,39.21
2023-05-10T12:26:29.821Z,39.49
2023-05-10T12:29:35.724Z,39.91
2023-05-10T12:32:44.282Z,39.94
2023-05-10T12:35:57.381Z,39.58
2023-05-10T12:39:05.939Z,40.30
2023-05-10T12:42:10.632Z,40.71
2023-05-10T12:45:18.814Z,39.38
2023-05-10T12:48:21.366Z,39.73
2023-05-10T12:51:26.426Z,39.91
2023-05-10T12:54:28.927Z,40.08
2023-05-10T12:57:31.666Z,40.20
2023-05-10T13:00:34.028Z,40.03
2023-05-10T13:03:41.478Z,39.37
2023-05-10T13:06:43.957Z,39.70
2023-05-10T13:09:46.248Z,39.26
2023-05-10T13:12:48.449Z,39.51
2023-05-10T13:15:53.153Z,38.78
2023-05-10T13:18:55.546Z,38.91
2023-05-10T13:22:02.993Z,39.10
2023-05-10T13:25:05.770Z,38.67
2023-05-10T13:28:10.636Z,37.41
2023-05-10T13:31:17.669Z,37.94
2023-05-10T13:34:22.704Z,38.28
2023-05-10T13:37:25.015Z,38.00
2023-05-10T13:40:27.318Z,37.75
2023-05-10T13:43:30.478Z,37.22
2023-05-10T13:46:35.004Z,37.08
2023-05-10T13:49:41.961Z,37.49
2023-05-10T13:52:44.301Z,37.78
2023-05-10T13:55:48.856Z,36.63
2023-05-10T13:58:51.193Z,36.99
2023-05-10T14:01:53.651Z,36.16
2023-05-10T14:04:58.041Z,36.17
2023-05-10T14:08:02.483Z,35.98
2023-05-10T14:11:09.472Z,36.16
2023-05-10T14:14:11.776Z,36.27
2023-05-10T14:17:18.531Z,35.50
2023-05-10T14:20:20.843Z,34.19
2023-05-10T14:23:26.799Z,31.76
2023-05-10T14:26:31.665Z,32.75
2023-05-10T14:29:33.996Z,34.23
2023-05-10T14:32:37.672Z,35.28
2023-05-10T14:35:40.789Z,35.37
2023-05-10T14:38:50.481Z,35.53
2023-05-10T14:41:55.504Z,35.15
2023-05-10T14:44:57.953Z,35.75
2023-05-10T14:48:05.487Z,35.09
2023-05-10T14:51:10.297Z,36.29
2023-05-10T14:54:15.296Z,37.10
2023-05-10T14:57:17.714Z,37.23
2023-05-10T15:00:21.787Z,36.71
2023-05-10T15:03:27.208Z,37.32
2023-05-10T15:06:36.173Z,36.93
2023-05-10T15:09:40.889Z,36.64
2023-05-10T15:12:45.759Z,36.51
2023-05-10T15:15:50.860Z,36.23
2023-05-10T15:18:58.759Z,36.00
2023-05-10T15:22:01.256Z,35.51
2023-05-10T15:25:05.743Z,35.13
2023-05-10T15:28:12.716Z,35.51
2023-05-10T15:31:17.076Z,35.66
2023-05-10T15:34:22.402Z,35.47
2023-05-10T15:37:25.453Z,35.90
2023-05-10T15:40:27.730Z,36.29
2023-05-10T15:43:30.003Z,35.08
2023-05-10T15:46:32.315Z,35.06
2023-05-10T15:49:37.048Z,35.67
2023-05-10T15:52:39.492Z,36.40
2023-05-10T15:55:41.758Z,36.29
2023-05-10T15:58:46.544Z,36.83
2023-05-10T16:01:51.979Z,37.24
2023-05-10T16:04:54.218Z,37.17
2023-05-10T16:07:56.910Z,37.33
2023-05-10T16:11:01.589Z,37.43
2023-05-10T16:14:07.302Z,37.79
2023-05-10T16:17:10.006Z,37.15
2023-05-10T16:20:14.755Z,37.04
2023-05-10T16:23:19.744Z,37.15
2023-05-10T16:26:24.410Z,36.25
2023-05-10T16:29:29.061Z,36.53
2023-05-10T16:32:31.417Z,37.34
2023-05-10T16:35:36.001Z,36.87
2023-05-10T16:38:38.489Z,37.58
2023-05-10T16:41:43.778Z,38.64
2023-05-10T16:44:48.369Z,39.11
2023-05-10T16:47:50.586Z,39.47
2023-05-10T16:50:52.888Z,38.95
2023-05-10T16:53:56.094Z,39.14
2023-05-10T16:56:58.369Z,39.08
2023-05-10T17:00:02.713Z,39.66
2023-05-10T17:03:07.769Z,40.34
2023-05-10T17:06:14.060Z,41.10
2023-05-10T17:09:17.578Z,41.29
2023-05-10T17:12:28.139Z,41.79
2023-05-10T17:15:32.664Z,42.38
2023-05-10T17:18:39.711Z,42.32
2023-05-10T17:21:42.065Z,42.53
2023-05-10T17:24:45.859Z,42.70
2023-05-10T17:27:53.216Z,42.67
2023-05-10T17:30:58.534Z,42.67
2023-05-10T17:34:05.443Z,42.16
2023-05-10T17:37:12.174Z,42.50
2023-05-10T17:40:18.248Z,42.51
2023-05-10T17:43:21.514Z,42.96
2023-05-10T17:46:26.581Z,42.87
2023-05-10T17:49:28.909Z,42.75
2023-05-10T17:52:33.920Z,42.79
2023-05-10T17:55:39.280Z,43.00
2023-05-10T17:58:41.845Z,43.16
2023-05-10T18:01:46.573Z,43.20
2023-05-10T18:04:49.531Z,43.16
2023-05-10T18:07:54.349Z,43.45
2023-05-10T18:10:59.270Z,43.27
2023-05-10T18:14:04.924Z,43.32
2023-05-10T18:17:07.837Z,43.78
2023-05-10T18:20:10.707Z,43.26
2023-05-10T18:23:13.301Z,43.05
2023-05-10T18:26:18.599Z,43.12
2023-05-10T18:29:24.295Z,42.70
2023-05-10T18:32:29.166Z,42.59
2023-05-10T18:35:36.496Z,42.77
2023-05-10T18:38:41.320Z,42.78
2023-05-10T18:41:44.727Z,42.71
2023-05-10T18:44:49.525Z,42.72
2023-05-10T18:47:53.405Z,42.62
2023-05-10T18:50:55.791Z,42.52
2023-05-10T18:54:03.543Z,42.76
2023-05-10T18:57:08.305Z,42.89
2023-05-10T19:00:14.041Z,42.55
2023-05-10T19:03:21.214Z,42.96
2023-05-10T19:06:23.548Z,42.78
2023-05-10T19:09:27.761Z,42.83
2023-05-10T19:12:30.578Z,42.82
2023-05-10T19:15:37.469Z,42.78
2023-05-10T19:18:44.134Z,42.82
2023-05-10T19:21:48.358Z,42.76
2023-05-10T19:24:50.678Z,42.90
2023-05-10T19:27:58.000Z,42.70
2023-05-10T19:31:00.452Z,43.13
2023-05-10T19:34:04.217Z,42.93
2023-05-10T19:37:08.801Z,43.54
2023-05-10T19:40:11.476Z,43.59
2023-05-10T19:43:13.851Z,43.37
2023-05-10T19:46:17.915Z,44.01
2023-05-10T19:49:27.392Z,44.09
2023-05-10T19:52:32.234Z,44.18
2023-05-10T19:55:37.359Z,44.30
2023-05-10T19:58:44.913Z,44.99
2023-05-10T20:01:47.213Z,44.59
2023-05-10T20:04:50.077Z,45.03
2023-05-10T20:07:53.471Z,45.04
2023-05-10T20:10:59.029Z,45.39
2023-05-10T20:14:08.404Z,45.65
2023-05-10T20:17:10.833Z,45.45
2023-05-10T20:20:17.164Z,45.50
2023-05-10T20:23:19.588Z,45.48
2023-05-10T20:26:22.003Z,45.16
2023-05-10T20:29:24.254Z,45.15
2023-05-10T20:32:29.104Z,45.07
2023-05-10T20:35:34.276Z,44.97
2023-05-10T20:38:36.878Z,45.23
2023-05-10T20:41:42.017Z,45.31
2023-05-10T20:44:44.249Z,45.22
2023-05-10T20:47:52.365Z,45.10
2023-05-10T20:50:57.214Z,45.12
2023-05-10T20:54:02.565Z,45.24
2023-05-10T20:57:04.998Z,45.37
2023-05-10T21:00:11.012Z,45.16
2023-05-10T21:03:18.196Z,45.48
2023-05-10T21:06:20.526Z,45.37
2023-05-10T21:09:25.307Z,45.25
2023-05-10T21:12:27.520Z,45.21
2023-05-10T21:15:29.794Z,45.45
2023-05-10T21:18:34.344Z,45.13
2023-05-10T21:21:36.599Z,45.34
2023-05-10T21:24:39.235Z,45.38
2023-05-10T21:27:47.252Z,45.51
2023-05-10T21:30:49.970Z,45.46
2023-05-10T21:33:52.200Z,45.62
2023-05-10T21:36:54.626Z,45.37
2023-05-10T21:39:57.012Z,45.53
2023-05-10T21:42:59.441Z,45.85
2023-05-10T21:46:04.726Z,45.52
2023-05-10T21:49:09.649Z,45.47
2023-05-10T21:52:16.472Z,45.91
2023-05-10T21:55:26.522Z,45.43
2023-05-10T21:58:31.431Z,45.46
2023-05-10T22:01:36.083Z,46.01
2023-05-10T22:04:38.405Z,45.93
2023-05-10T22:07:40.709Z,46.18
2023-05-10T22:10:43.145Z,45.30
2023-05-10T22:13:47.677Z,45.29
2023-05-10T22:16:49.977Z,45.19
2023-05-10T22:19:52.356Z,45.17
2023-05-10T22:22:55.188Z,45.01
2023-05-10T22:26:04.159Z,45.34
2023-05-10T22:29:09.260Z,45.20
2023-05-10T22:32:11.522Z,45.53
2023-05-10T22:35:13.825Z,46.00
2023-05-10T22:38:16.265Z,45.51
2023-05-10T22:41:18.662Z,45.75
2023-05-10T22:44:20.943Z,45.47
2023-05-10T22:47:23.176Z,46.08
2023-05-10T22:50:25.482Z,46.31
2023-05-10T22:53:33.396Z,45.62
2023-05-10T22:56:35.874Z,46.25
2023-05-10T22:59:38.166Z,47.36
2023-05-10T23:02:43.199Z,47.63
2023-05-10T23:05:45.497Z,47.85
2023-05-10T23:08:48.150Z,47.58
2023-05-10T23:11:53.395Z,48.10
2023-05-10T23:14:56.568Z,47.65
2023-05-10T23:18:01.785Z,47.61
2023-05-10T23:21:04.208Z,48.14
2023-05-10T23:24:11.685Z,47.76
2023-05-10T23:27:16.918Z,48.38
2023-05-10T23:30:19.560Z,47.87
2023-05-10T23:33:22.398Z,48.00
2023-05-10T23:36:24.625Z,48.12
2023-05-10T23:39:29.121Z,47.84
2023-05-10T23:42:34.950Z,48.15
2023-05-10T23:45:37.264Z,48.00
2023-05-10T23:48:39.886Z,48.62
2023-05-10T23:51:42.237Z,48.38
2023-05-10T23:54:45.959Z,47.86
2023-05-10T23:57:48.323Z,48.15
